Terminal Aerodrome Forecast
Issued by NWS

Current Version | Previous Version | Text Only | Print | Product List | Glossary On
Versions: 1 2 3 4 5 6 7 8 9 10 11 12 13
000
FTUS44 KLIX 301740
TAFGPT
TAF
KGPT 301740Z 3018/0118 VRB04KT P6SM FEW030
      TEMPO 3020/3024 VRB15G29KT 1SM TSRA BKN035CB BKN080
     FM010100 VRB06KT P6SM SCT060 SCT250=

USA.gov is the U.S. government's official web portal to all federal, state and local government web resources and services.